sensor_id;sensor_type;location;lat;lon;timestamp;P1;durP1;ratioP1;P2;durP2;ratioP2
30420;SDS011;17218;54.070;10.012;2022-07-29T00:00:23;9.07;;;4.35;;
30420;SDS011;17218;54.070;10.012;2022-07-29T00:02:49;6.13;;;3.75;;
30420;SDS011;17218;54.070;10.012;2022-07-29T00:05:16;6.78;;;3.60;;
30420;SDS011;17218;54.070;10.012;2022-07-29T00:07:42;9.05;;;3.75;;
30420;SDS011;17218;54.070;10.012;2022-07-29T00:10:10;4.00;;;2.88;;
30420;SDS011;17218;54.070;10.012;2022-07-29T00:12:37;4.93;;;3.15;;
30420;SDS011;17218;54.070;10.012;2022-07-29T00:15:04;5.88;;;2.83;;
30420;SDS011;17218;54.070;10.012;2022-07-29T00:17:32;6.35;;;3.17;;
30420;SDS011;17218;54.070;10.012;2022-07-29T00:19:59;6.25;;;2.67;;
30420;SDS011;17218;54.070;10.012;2022-07-29T00:22:25;3.88;;;2.75;;
30420;SDS011;17218;54.070;10.012;2022-07-29T00:24:52;8.27;;;3.10;;
30420;SDS011;17218;54.070;10.012;2022-07-29T00:27:20;4.18;;;2.70;;
30420;SDS011;17218;54.070;10.012;2022-07-29T00:29:46;4.97;;;2.88;;
30420;SDS011;17218;54.070;10.012;2022-07-29T00:32:13;5.20;;;2.90;;
30420;SDS011;17218;54.070;10.012;2022-07-29T00:34:40;4.10;;;2.40;;
30420;SDS011;17218;54.070;10.012;2022-07-29T00:37:24;6.25;;;2.72;;
30420;SDS011;17218;54.070;10.012;2022-07-29T00:39:51;4.63;;;2.72;;
30420;SDS011;17218;54.070;10.012;2022-07-29T00:42:17;3.90;;;2.72;;
30420;SDS011;17218;54.070;10.012;2022-07-29T00:44:46;4.15;;;2.60;;
30420;SDS011;17218;54.070;10.012;2022-07-29T00:47:12;4.60;;;2.75;;
30420;SDS011;17218;54.070;10.012;2022-07-29T00:49:39;7.53;;;2.80;;
30420;SDS011;17218;54.070;10.012;2022-07-29T00:52:08;7.28;;;3.38;;
30420;SDS011;17218;54.070;10.012;2022-07-29T00:54:35;5.47;;;3.60;;
30420;SDS011;17218;54.070;10.012;2022-07-29T00:57:04;4.68;;;3.22;;
30420;SDS011;17218;54.070;10.012;2022-07-29T00:59:32;3.92;;;2.80;;
30420;SDS011;17218;54.070;10.012;2022-07-29T01:02:00;4.53;;;3.05;;
30420;SDS011;17218;54.070;10.012;2022-07-29T01:04:27;5.50;;;2.72;;
30420;SDS011;17218;54.070;10.012;2022-07-29T01:06:54;3.50;;;2.40;;
30420;SDS011;17218;54.070;10.012;2022-07-29T01:09:21;5.72;;;3.15;;
30420;SDS011;17218;54.070;10.012;2022-07-29T01:11:48;5.88;;;2.90;;
30420;SDS011;17218;54.070;10.012;2022-07-29T01:14:15;4.90;;;2.65;;
30420;SDS011;17218;54.070;10.012;2022-07-29T01:16:44;4.65;;;2.35;;
30420;SDS011;17218;54.070;10.012;2022-07-29T01:19:23;5.97;;;3.28;;
30420;SDS011;17218;54.070;10.012;2022-07-29T01:22:09;4.13;;;2.60;;
30420;SDS011;17218;54.070;10.012;2022-07-29T01:24:56;4.68;;;3.00;;
30420;SDS011;17218;54.070;10.012;2022-07-29T01:27:35;3.65;;;2.25;;
30420;SDS011;17218;54.070;10.012;2022-07-29T01:30:11;4.75;;;2.42;;
30420;SDS011;17218;54.070;10.012;2022-07-29T01:32:38;4.25;;;2.40;;
30420;SDS011;17218;54.070;10.012;2022-07-29T01:35:08;2.90;;;2.15;;
30420;SDS011;17218;54.070;10.012;2022-07-29T01:37:39;4.95;;;2.30;;
30420;SDS011;17218;54.070;10.012;2022-07-29T01:40:11;3.92;;;2.40;;
30420;SDS011;17218;54.070;10.012;2022-07-29T01:42:43;4.45;;;2.47;;
30420;SDS011;17218;54.070;10.012;2022-07-29T01:45:14;3.15;;;2.25;;
30420;SDS011;17218;54.070;10.012;2022-07-29T01:47:44;4.47;;;2.47;;
30420;SDS011;17218;54.070;10.012;2022-07-29T01:50:16;3.90;;;2.00;;
30420;SDS011;17218;54.070;10.012;2022-07-29T01:52:45;3.42;;;2.72;;
30420;SDS011;17218;54.070;10.012;2022-07-29T01:55:16;3.70;;;2.10;;
30420;SDS011;17218;54.070;10.012;2022-07-29T01:57:46;3.67;;;2.40;;
30420;SDS011;17218;54.070;10.012;2022-07-29T02:00:17;3.72;;;2.80;;
30420;SDS011;17218;54.070;10.012;2022-07-29T02:02:45;4.28;;;2.30;;
30420;SDS011;17218;54.070;10.012;2022-07-29T02:05:15;3.50;;;2.38;;
30420;SDS011;17218;54.070;10.012;2022-07-29T02:07:44;5.47;;;2.45;;
30420;SDS011;17218;54.070;10.012;2022-07-29T02:10:13;5.70;;;2.85;;
30420;SDS011;17218;54.070;10.012;2022-07-29T02:12:43;5.88;;;2.90;;
30420;SDS011;17218;54.070;10.012;2022-07-29T02:15:11;4.45;;;2.65;;
30420;SDS011;17218;54.070;10.012;2022-07-29T02:17:41;6.78;;;2.50;;
30420;SDS011;17218;54.070;10.012;2022-07-29T02:20:09;3.65;;;2.67;;
30420;SDS011;17218;54.070;10.012;2022-07-29T02:22:37;5.38;;;2.83;;
30420;SDS011;17218;54.070;10.012;2022-07-29T02:25:05;3.17;;;2.88;;
30420;SDS011;17218;54.070;10.012;2022-07-29T02:27:34;3.30;;;2.90;;
30420;SDS011;17218;54.070;10.012;2022-07-29T02:30:03;3.83;;;2.97;;
30420;SDS011;17218;54.070;10.012;2022-07-29T02:32:32;4.35;;;3.20;;
30420;SDS011;17218;54.070;10.012;2022-07-29T02:35:03;2.95;;;2.60;;
30420;SDS011;17218;54.070;10.012;2022-07-29T02:37:31;6.50;;;3.38;;
30420;SDS011;17218;54.070;10.012;2022-07-29T02:39:58;4.75;;;2.65;;
30420;SDS011;17218;54.070;10.012;2022-07-29T02:42:27;5.05;;;3.25;;
30420;SDS011;17218;54.070;10.012;2022-07-29T02:44:55;8.70;;;3.83;;
30420;SDS011;17218;54.070;10.012;2022-07-29T02:47:23;8.70;;;4.38;;
30420;SDS011;17218;54.070;10.012;2022-07-29T02:49:53;8.77;;;5.32;;
30420;SDS011;17218;54.070;10.012;2022-07-29T02:52:26;8.63;;;4.50;;
30420;SDS011;17218;54.070;10.012;2022-07-29T02:54:58;7.50;;;5.03;;
30420;SDS011;17218;54.070;10.012;2022-07-29T02:57:30;5.47;;;4.07;;
30420;SDS011;17218;54.070;10.012;2022-07-29T03:00:00;8.00;;;3.88;;
30420;SDS011;17218;54.070;10.012;2022-07-29T03:05:04;3.88;;;3.00;;
30420;SDS011;17218;54.070;10.012;2022-07-29T03:07:35;4.22;;;3.10;;
30420;SDS011;17218;54.070;10.012;2022-07-29T03:10:04;5.60;;;3.42;;
30420;SDS011;17218;54.070;10.012;2022-07-29T03:12:32;6.85;;;2.90;;
30420;SDS011;17218;54.070;10.012;2022-07-29T03:14:59;4.43;;;3.30;;
30420;SDS011;17218;54.070;10.012;2022-07-29T03:17:29;6.97;;;3.95;;
30420;SDS011;17218;54.070;10.012;2022-07-29T03:19:57;3.67;;;2.95;;
30420;SDS011;17218;54.070;10.012;2022-07-29T03:22:24;6.78;;;3.47;;
30420;SDS011;17218;54.070;10.012;2022-07-29T03:24:52;7.72;;;3.53;;
30420;SDS011;17218;54.070;10.012;2022-07-29T03:27:19;6.40;;;3.45;;
30420;SDS011;17218;54.070;10.012;2022-07-29T03:29:47;5.88;;;3.20;;
30420;SDS011;17218;54.070;10.012;2022-07-29T03:32:14;7.00;;;3.17;;
30420;SDS011;17218;54.070;10.012;2022-07-29T03:34:41;7.47;;;3.28;;
30420;SDS011;17218;54.070;10.012;2022-07-29T03:37:07;6.70;;;3.67;;
30420;SDS011;17218;54.070;10.012;2022-07-29T03:39:36;4.47;;;3.33;;
30420;SDS011;17218;54.070;10.012;2022-07-29T03:42:08;6.65;;;3.55;;
30420;SDS011;17218;54.070;10.012;2022-07-29T03:44:38;4.53;;;3.47;;
30420;SDS011;17218;54.070;10.012;2022-07-29T03:47:07;5.45;;;3.42;;
30420;SDS011;17218;54.070;10.012;2022-07-29T03:49:35;5.03;;;3.33;;
30420;SDS011;17218;54.070;10.012;2022-07-29T03:52:04;4.22;;;3.45;;
30420;SDS011;17218;54.070;10.012;2022-07-29T03:54:31;5.47;;;3.35;;
30420;SDS011;17218;54.070;10.012;2022-07-29T03:56:58;6.07;;;3.42;;
30420;SDS011;17218;54.070;10.012;2022-07-29T03:59:28;3.80;;;2.63;;
30420;SDS011;17218;54.070;10.012;2022-07-29T04:02:00;3.75;;;2.88;;
30420;SDS011;17218;54.070;10.012;2022-07-29T04:04:29;6.38;;;3.38;;
30420;SDS011;17218;54.070;10.012;2022-07-29T04:06:58;6.70;;;3.83;;
30420;SDS011;17218;54.070;10.012;2022-07-29T04:09:25;8.02;;;4.20;;
30420;SDS011;17218;54.070;10.012;2022-07-29T04:11:52;7.40;;;4.30;;
30420;SDS011;17218;54.070;10.012;2022-07-29T04:14:19;9.88;;;4.88;;
30420;SDS011;17218;54.070;10.012;2022-07-29T04:16:47;8.68;;;4.53;;
30420;SDS011;17218;54.070;10.012;2022-07-29T04:19:14;7.72;;;4.55;;
30420;SDS011;17218;54.070;10.012;2022-07-29T04:21:40;6.90;;;4.55;;
30420;SDS011;17218;54.070;10.012;2022-07-29T04:24:08;7.57;;;4.25;;
30420;SDS011;17218;54.070;10.012;2022-07-29T04:26:35;8.32;;;4.15;;
30420;SDS011;17218;54.070;10.012;2022-07-29T04:29:01;5.43;;;3.38;;
30420;SDS011;17218;54.070;10.012;2022-07-29T04:31:28;6.18;;;3.75;;
30420;SDS011;17218;54.070;10.012;2022-07-29T04:33:56;9.27;;;4.20;;
30420;SDS011;17218;54.070;10.012;2022-07-29T04:36:23;7.35;;;4.45;;
30420;SDS011;17218;54.070;10.012;2022-07-29T04:38:49;8.52;;;5.22;;
30420;SDS011;17218;54.070;10.012;2022-07-29T04:41:17;9.43;;;4.40;;
30420;SDS011;17218;54.070;10.012;2022-07-29T04:43:44;9.20;;;4.90;;
30420;SDS011;17218;54.070;10.012;2022-07-29T04:46:11;9.60;;;5.03;;
30420;SDS011;17218;54.070;10.012;2022-07-29T04:48:37;8.23;;;4.93;;
30420;SDS011;17218;54.070;10.012;2022-07-29T04:51:05;8.52;;;4.57;;
30420;SDS011;17218;54.070;10.012;2022-07-29T04:53:32;7.80;;;4.50;;
30420;SDS011;17218;54.070;10.012;2022-07-29T04:55:59;6.63;;;3.88;;
30420;SDS011;17218;54.070;10.012;2022-07-29T04:58:25;7.78;;;4.63;;
30420;SDS011;17218;54.070;10.012;2022-07-29T05:00:52;6.88;;;3.85;;
30420;SDS011;17218;54.070;10.012;2022-07-29T05:03:18;6.10;;;3.20;;
30420;SDS011;17218;54.070;10.012;2022-07-29T05:05:45;7.57;;;3.63;;
30420;SDS011;17218;54.070;10.012;2022-07-29T05:08:13;4.32;;;3.38;;
30420;SDS011;17218;54.070;10.012;2022-07-29T05:10:40;5.53;;;2.70;;
30420;SDS011;17218;54.070;10.012;2022-07-29T05:13:06;4.30;;;2.80;;
30420;SDS011;17218;54.070;10.012;2022-07-29T05:15:34;6.22;;;2.53;;
30420;SDS011;17218;54.070;10.012;2022-07-29T05:18:01;3.40;;;2.75;;
30420;SDS011;17218;54.070;10.012;2022-07-29T05:20:28;3.15;;;2.53;;
30420;SDS011;17218;54.070;10.012;2022-07-29T05:22:55;6.25;;;2.30;;
30420;SDS011;17218;54.070;10.012;2022-07-29T05:25:24;2.55;;;2.35;;
30420;SDS011;17218;54.070;10.012;2022-07-29T05:27:51;4.28;;;2.20;;
30420;SDS011;17218;54.070;10.012;2022-07-29T05:30:18;3.38;;;2.40;;
30420;SDS011;17218;54.070;10.012;2022-07-29T05:32:45;4.80;;;2.40;;
30420;SDS011;17218;54.070;10.012;2022-07-29T05:35:12;4.53;;;2.30;;
30420;SDS011;17218;54.070;10.012;2022-07-29T05:37:40;2.80;;;2.50;;
30420;SDS011;17218;54.070;10.012;2022-07-29T05:40:07;5.10;;;2.55;;
30420;SDS011;17218;54.070;10.012;2022-07-29T05:42:36;6.70;;;2.60;;
30420;SDS011;17218;54.070;10.012;2022-07-29T05:45:03;2.42;;;2.17;;
30420;SDS011;17218;54.070;10.012;2022-07-29T05:47:30;4.28;;;2.28;;
30420;SDS011;17218;54.070;10.012;2022-07-29T05:49:57;3.25;;;2.15;;
30420;SDS011;17218;54.070;10.012;2022-07-29T05:52:24;2.85;;;2.15;;
30420;SDS011;17218;54.070;10.012;2022-07-29T05:54:50;7.15;;;2.53;;
30420;SDS011;17218;54.070;10.012;2022-07-29T05:57:17;4.72;;;2.53;;
30420;SDS011;17218;54.070;10.012;2022-07-29T05:59:46;4.35;;;2.65;;
30420;SDS011;17218;54.070;10.012;2022-07-29T06:02:13;6.13;;;3.05;;
30420;SDS011;17218;54.070;10.012;2022-07-29T06:04:39;3.20;;;2.90;;
30420;SDS011;17218;54.070;10.012;2022-07-29T06:07:06;6.30;;;3.00;;
30420;SDS011;17218;54.070;10.012;2022-07-29T06:09:33;5.60;;;3.17;;
30420;SDS011;17218;54.070;10.012;2022-07-29T06:12:00;6.60;;;2.75;;
30420;SDS011;17218;54.070;10.012;2022-07-29T06:14:27;7.32;;;3.05;;
30420;SDS011;17218;54.070;10.012;2022-07-29T06:16:55;7.00;;;3.20;;
30420;SDS011;17218;54.070;10.012;2022-07-29T06:19:21;6.65;;;3.42;;
30420;SDS011;17218;54.070;10.012;2022-07-29T06:21:48;4.80;;;3.38;;
30420;SDS011;17218;54.070;10.012;2022-07-29T06:24:17;4.85;;;2.88;;
30420;SDS011;17218;54.070;10.012;2022-07-29T06:26:44;6.47;;;3.28;;
30420;SDS011;17218;54.070;10.012;2022-07-29T06:29:11;4.93;;;2.88;;
30420;SDS011;17218;54.070;10.012;2022-07-29T06:31:37;6.30;;;2.63;;
30420;SDS011;17218;54.070;10.012;2022-07-29T06:34:06;6.40;;;3.08;;
30420;SDS011;17218;54.070;10.012;2022-07-29T06:36:34;5.18;;;2.55;;
30420;SDS011;17218;54.070;10.012;2022-07-29T06:39:03;4.20;;;3.00;;
30420;SDS011;17218;54.070;10.012;2022-07-29T06:41:31;8.10;;;2.67;;
30420;SDS011;17218;54.070;10.012;2022-07-29T06:43:57;5.68;;;2.65;;
30420;SDS011;17218;54.070;10.012;2022-07-29T06:46:24;4.60;;;3.03;;
30420;SDS011;17218;54.070;10.012;2022-07-29T06:48:51;5.40;;;2.88;;
30420;SDS011;17218;54.070;10.012;2022-07-29T06:51:19;3.75;;;2.60;;
30420;SDS011;17218;54.070;10.012;2022-07-29T06:53:47;3.55;;;2.58;;
30420;SDS011;17218;54.070;10.012;2022-07-29T06:56:16;5.40;;;2.65;;
30420;SDS011;17218;54.070;10.012;2022-07-29T06:58:42;5.88;;;2.53;;
30420;SDS011;17218;54.070;10.012;2022-07-29T07:01:09;9.00;;;2.70;;
30420;SDS011;17218;54.070;10.012;2022-07-29T07:03:35;6.93;;;2.63;;
30420;SDS011;17218;54.070;10.012;2022-07-29T07:06:02;5.40;;;2.20;;
30420;SDS011;17218;54.070;10.012;2022-07-29T07:08:30;2.92;;;2.25;;
30420;SDS011;17218;54.070;10.012;2022-07-29T07:10:57;5.90;;;2.38;;
30420;SDS011;17218;54.070;10.012;2022-07-29T07:13:23;4.00;;;2.10;;
30420;SDS011;17218;54.070;10.012;2022-07-29T07:15:50;4.72;;;2.30;;
30420;SDS011;17218;54.070;10.012;2022-07-29T07:18:18;3.85;;;2.53;;
30420;SDS011;17218;54.070;10.012;2022-07-29T07:20:45;4.68;;;2.60;;
30420;SDS011;17218;54.070;10.012;2022-07-29T07:23:12;2.97;;;2.05;;
30420;SDS011;17218;54.070;10.012;2022-07-29T07:25:40;4.78;;;2.33;;
30420;SDS011;17218;54.070;10.012;2022-07-29T07:28:07;5.80;;;2.28;;
30420;SDS011;17218;54.070;10.012;2022-07-29T07:30:33;6.05;;;2.20;;
30420;SDS011;17218;54.070;10.012;2022-07-29T07:33:00;3.97;;;2.55;;
30420;SDS011;17218;54.070;10.012;2022-07-29T07:35:27;6.72;;;2.17;;
30420;SDS011;17218;54.070;10.012;2022-07-29T07:37:54;5.15;;;2.28;;
30420;SDS011;17218;54.070;10.012;2022-07-29T07:40:21;4.70;;;2.30;;
30420;SDS011;17218;54.070;10.012;2022-07-29T07:42:49;3.38;;;1.77;;
30420;SDS011;17218;54.070;10.012;2022-07-29T07:45:15;4.40;;;2.20;;
30420;SDS011;17218;54.070;10.012;2022-07-29T07:47:42;5.75;;;2.15;;
30420;SDS011;17218;54.070;10.012;2022-07-29T07:50:09;6.63;;;2.25;;
30420;SDS011;17218;54.070;10.012;2022-07-29T07:52:45;3.95;;;1.85;;
30420;SDS011;17218;54.070;10.012;2022-07-29T07:55:12;5.72;;;2.10;;
30420;SDS011;17218;54.070;10.012;2022-07-29T07:57:39;8.35;;;2.55;;
30420;SDS011;17218;54.070;10.012;2022-07-29T08:00:07;3.75;;;2.05;;
30420;SDS011;17218;54.070;10.012;2022-07-29T08:02:35;3.70;;;1.85;;
30420;SDS011;17218;54.070;10.012;2022-07-29T08:05:01;3.58;;;1.77;;
30420;SDS011;17218;54.070;10.012;2022-07-29T08:07:28;4.97;;;1.67;;
30420;SDS011;17218;54.070;10.012;2022-07-29T08:09:55;4.35;;;1.75;;
30420;SDS011;17218;54.070;10.012;2022-07-29T08:12:21;5.38;;;2.08;;
30420;SDS011;17218;54.070;10.012;2022-07-29T08:14:48;3.67;;;1.75;;
30420;SDS011;17218;54.070;10.012;2022-07-29T08:17:16;3.38;;;1.70;;
30420;SDS011;17218;54.070;10.012;2022-07-29T08:19:43;3.35;;;1.75;;
30420;SDS011;17218;54.070;10.012;2022-07-29T08:22:09;4.13;;;2.08;;
30420;SDS011;17218;54.070;10.012;2022-07-29T08:24:36;5.53;;;2.10;;
30420;SDS011;17218;54.070;10.012;2022-07-29T08:27:17;3.50;;;1.80;;
30420;SDS011;17218;54.070;10.012;2022-07-29T08:29:45;4.70;;;1.70;;
30420;SDS011;17218;54.070;10.012;2022-07-29T08:32:12;6.25;;;1.70;;
30420;SDS011;17218;54.070;10.012;2022-07-29T08:34:40;2.38;;;1.60;;
30420;SDS011;17218;54.070;10.012;2022-07-29T08:37:07;5.18;;;2.17;;
30420;SDS011;17218;54.070;10.012;2022-07-29T08:39:33;3.55;;;1.50;;
30420;SDS011;17218;54.070;10.012;2022-07-29T08:42:00;4.53;;;2.13;;
30420;SDS011;17218;54.070;10.012;2022-07-29T08:44:27;3.28;;;2.08;;
30420;SDS011;17218;54.070;10.012;2022-07-29T08:46:54;3.80;;;1.83;;
30420;SDS011;17218;54.070;10.012;2022-07-29T08:49:20;5.55;;;1.98;;
30420;SDS011;17218;54.070;10.012;2022-07-29T08:51:48;3.03;;;1.52;;
30420;SDS011;17218;54.070;10.012;2022-07-29T08:54:16;2.08;;;1.60;;
30420;SDS011;17218;54.070;10.012;2022-07-29T08:56:47;6.03;;;1.85;;
30420;SDS011;17218;54.070;10.012;2022-07-29T08:59:16;5.50;;;1.95;;
30420;SDS011;17218;54.070;10.012;2022-07-29T09:01:45;3.15;;;1.60;;
30420;SDS011;17218;54.070;10.012;2022-07-29T09:04:14;3.88;;;1.55;;
30420;SDS011;17218;54.070;10.012;2022-07-29T09:06:43;3.85;;;1.75;;
30420;SDS011;17218;54.070;10.012;2022-07-29T09:09:13;2.83;;;1.60;;
30420;SDS011;17218;54.070;10.012;2022-07-29T09:11:41;4.93;;;1.98;;
30420;SDS011;17218;54.070;10.012;2022-07-29T09:14:08;6.72;;;1.95;;
30420;SDS011;17218;54.070;10.012;2022-07-29T09:19:27;3.63;;;1.80;;
30420;SDS011;17218;54.070;10.012;2022-07-29T09:21:57;2.47;;;1.40;;
30420;SDS011;17218;54.070;10.012;2022-07-29T09:24:35;4.85;;;1.75;;
30420;SDS011;17218;54.070;10.012;2022-07-29T09:27:07;3.65;;;1.83;;
30420;SDS011;17218;54.070;10.012;2022-07-29T09:29:43;2.00;;;1.42;;
30420;SDS011;17218;54.070;10.012;2022-07-29T09:32:10;2.72;;;1.20;;
30420;SDS011;17218;54.070;10.012;2022-07-29T09:34:37;3.50;;;1.67;;
30420;SDS011;17218;54.070;10.012;2022-07-29T09:37:03;3.17;;;1.55;;
30420;SDS011;17218;54.070;10.012;2022-07-29T09:39:33;3.83;;;1.60;;
30420;SDS011;17218;54.070;10.012;2022-07-29T09:42:02;3.65;;;2.00;;
30420;SDS011;17218;54.070;10.012;2022-07-29T09:44:42;4.10;;;1.58;;
30420;SDS011;17218;54.070;10.012;2022-07-29T09:47:11;5.38;;;1.70;;
30420;SDS011;17218;54.070;10.012;2022-07-29T09:49:50;6.57;;;1.75;;
30420;SDS011;17218;54.070;10.012;2022-07-29T09:52:18;2.00;;;1.50;;
30420;SDS011;17218;54.070;10.012;2022-07-29T09:54:49;4.13;;;1.45;;
30420;SDS011;17218;54.070;10.012;2022-07-29T09:57:22;4.25;;;1.60;;
30420;SDS011;17218;54.070;10.012;2022-07-29T09:59:57;2.20;;;1.50;;
30420;SDS011;17218;54.070;10.012;2022-07-29T10:02:29;3.83;;;1.55;;
30420;SDS011;17218;54.070;10.012;2022-07-29T10:04:57;2.58;;;1.70;;
30420;SDS011;17218;54.070;10.012;2022-07-29T10:07:24;3.38;;;1.50;;
30420;SDS011;17218;54.070;10.012;2022-07-29T10:09:56;3.80;;;1.52;;
30420;SDS011;17218;54.070;10.012;2022-07-29T10:12:23;3.63;;;1.63;;
30420;SDS011;17218;54.070;10.012;2022-07-29T10:14:50;3.25;;;1.52;;
30420;SDS011;17218;54.070;10.012;2022-07-29T10:17:17;3.92;;;1.40;;
30420;SDS011;17218;54.070;10.012;2022-07-29T10:19:44;5.38;;;1.48;;
30420;SDS011;17218;54.070;10.012;2022-07-29T10:22:12;4.60;;;1.92;;
30420;SDS011;17218;54.070;10.012;2022-07-29T10:24:39;2.97;;;1.58;;
30420;SDS011;17218;54.070;10.012;2022-07-29T10:27:07;6.13;;;1.92;;
30420;SDS011;17218;54.070;10.012;2022-07-29T10:29:34;2.53;;;1.50;;
30420;SDS011;17218;54.070;10.012;2022-07-29T10:32:14;3.13;;;1.50;;
30420;SDS011;17218;54.070;10.012;2022-07-29T10:34:57;2.20;;;1.33;;
30420;SDS011;17218;54.070;10.012;2022-07-29T10:37:38;2.95;;;1.67;;
30420;SDS011;17218;54.070;10.012;2022-07-29T10:40:21;3.95;;;1.75;;
30420;SDS011;17218;54.070;10.012;2022-07-29T10:43:17;2.97;;;1.55;;
30420;SDS011;17218;54.070;10.012;2022-07-29T10:45:47;2.22;;;1.50;;
30420;SDS011;17218;54.070;10.012;2022-07-29T10:48:15;5.32;;;1.52;;
30420;SDS011;17218;54.070;10.012;2022-07-29T10:50:52;4.43;;;1.50;;
30420;SDS011;17218;54.070;10.012;2022-07-29T10:53:20;7.60;;;2.08;;
30420;SDS011;17218;54.070;10.012;2022-07-29T10:55:46;6.00;;;1.67;;
30420;SDS011;17218;54.070;10.012;2022-07-29T10:58:17;1.85;;;1.20;;
30420;SDS011;17218;54.070;10.012;2022-07-29T11:00:45;4.10;;;1.50;;
30420;SDS011;17218;54.070;10.012;2022-07-29T11:06:11;3.78;;;1.52;;
30420;SDS011;17218;54.070;10.012;2022-07-29T11:08:38;4.90;;;1.70;;
30420;SDS011;17218;54.070;10.012;2022-07-29T11:14:07;4.40;;;1.40;;
30420;SDS011;17218;54.070;10.012;2022-07-29T11:19:28;2.15;;;1.40;;
30420;SDS011;17218;54.070;10.012;2022-07-29T11:21:54;3.40;;;1.60;;
30420;SDS011;17218;54.070;10.012;2022-07-29T11:24:23;3.15;;;1.40;;
30420;SDS011;17218;54.070;10.012;2022-07-29T11:27:09;2.63;;;1.45;;
30420;SDS011;17218;54.070;10.012;2022-07-29T11:29:49;3.28;;;1.45;;
30420;SDS011;17218;54.070;10.012;2022-07-29T11:32:17;4.35;;;1.42;;
30420;SDS011;17218;54.070;10.012;2022-07-29T11:34:45;2.53;;;1.67;;
30420;SDS011;17218;54.070;10.012;2022-07-29T11:37:17;5.72;;;1.60;;
30420;SDS011;17218;54.070;10.012;2022-07-29T11:39:46;2.90;;;1.50;;
30420;SDS011;17218;54.070;10.012;2022-07-29T11:45:05;1.77;;;1.15;;
30420;SDS011;17218;54.070;10.012;2022-07-29T11:47:34;3.70;;;1.30;;
30420;SDS011;17218;54.070;10.012;2022-07-29T11:50:03;5.90;;;1.48;;
30420;SDS011;17218;54.070;10.012;2022-07-29T11:52:32;2.05;;;1.40;;
30420;SDS011;17218;54.070;10.012;2022-07-29T11:55:00;5.55;;;1.42;;
30420;SDS011;17218;54.070;10.012;2022-07-29T11:57:29;2.00;;;1.80;;
30420;SDS011;17218;54.070;10.012;2022-07-29T11:59:57;4.70;;;1.45;;
30420;SDS011;17218;54.070;10.012;2022-07-29T12:02:25;4.65;;;1.58;;
30420;SDS011;17218;54.070;10.012;2022-07-29T12:05:04;2.25;;;1.38;;
30420;SDS011;17218;54.070;10.012;2022-07-29T12:07:32;2.95;;;1.42;;
30420;SDS011;17218;54.070;10.012;2022-07-29T12:10:00;2.70;;;1.65;;
30420;SDS011;17218;54.070;10.012;2022-07-29T12:12:27;2.15;;;1.20;;
30420;SDS011;17218;54.070;10.012;2022-07-29T12:14:54;4.18;;;1.60;;
30420;SDS011;17218;54.070;10.012;2022-07-29T12:17:28;4.57;;;1.55;;
30420;SDS011;17218;54.070;10.012;2022-07-29T12:19:56;2.92;;;1.60;;
30420;SDS011;17218;54.070;10.012;2022-07-29T12:22:24;4.13;;;1.48;;
30420;SDS011;17218;54.070;10.012;2022-07-29T12:24:52;2.30;;;1.50;;
30420;SDS011;17218;54.070;10.012;2022-07-29T12:27:19;3.10;;;1.60;;
30420;SDS011;17218;54.070;10.012;2022-07-29T12:29:54;4.40;;;1.83;;
30420;SDS011;17218;54.070;10.012;2022-07-29T12:32:22;3.58;;;1.58;;
30420;SDS011;17218;54.070;10.012;2022-07-29T12:34:50;2.95;;;1.60;;
30420;SDS011;17218;54.070;10.012;2022-07-29T12:37:17;2.30;;;1.70;;
30420;SDS011;17218;54.070;10.012;2022-07-29T12:39:44;3.28;;;1.83;;
30420;SDS011;17218;54.070;10.012;2022-07-29T12:42:11;4.47;;;1.90;;
30420;SDS011;17218;54.070;10.012;2022-07-29T12:44:45;5.18;;;1.40;;
30420;SDS011;17218;54.070;10.012;2022-07-29T12:47:13;4.07;;;1.50;;
30420;SDS011;17218;54.070;10.012;2022-07-29T12:49:40;4.82;;;2.10;;
30420;SDS011;17218;54.070;10.012;2022-07-29T12:52:28;3.40;;;1.67;;
30420;SDS011;17218;54.070;10.012;2022-07-29T12:54:56;2.80;;;1.58;;
30420;SDS011;17218;54.070;10.012;2022-07-29T12:57:23;5.07;;;1.77;;
30420;SDS011;17218;54.070;10.012;2022-07-29T13:00:01;2.67;;;1.80;;
30420;SDS011;17218;54.070;10.012;2022-07-29T13:02:34;4.07;;;1.50;;
30420;SDS011;17218;54.070;10.012;2022-07-29T13:05:01;3.10;;;1.55;;
30420;SDS011;17218;54.070;10.012;2022-07-29T13:07:44;3.92;;;1.50;;
30420;SDS011;17218;54.070;10.012;2022-07-29T13:10:11;7.38;;;1.70;;
30420;SDS011;17218;54.070;10.012;2022-07-29T13:15:31;3.63;;;1.50;;
30420;SDS011;17218;54.070;10.012;2022-07-29T13:17:58;4.90;;;1.70;;
30420;SDS011;17218;54.070;10.012;2022-07-29T13:20:25;4.15;;;1.60;;
30420;SDS011;17218;54.070;10.012;2022-07-29T13:22:57;4.38;;;1.10;;
30420;SDS011;17218;54.070;10.012;2022-07-29T13:25:25;2.65;;;1.55;;
30420;SDS011;17218;54.070;10.012;2022-07-29T13:27:53;1.70;;;1.40;;
30420;SDS011;17218;54.070;10.012;2022-07-29T13:30:21;5.20;;;1.55;;
30420;SDS011;17218;54.070;10.012;2022-07-29T13:32:48;5.15;;;1.55;;
30420;SDS011;17218;54.070;10.012;2022-07-29T13:35:15;4.95;;;1.58;;
30420;SDS011;17218;54.070;10.012;2022-07-29T13:37:42;3.30;;;1.63;;
30420;SDS011;17218;54.070;10.012;2022-07-29T13:40:10;3.38;;;1.45;;
30420;SDS011;17218;54.070;10.012;2022-07-29T13:42:38;4.13;;;1.80;;
30420;SDS011;17218;54.070;10.012;2022-07-29T13:45:06;3.67;;;1.80;;
30420;SDS011;17218;54.070;10.012;2022-07-29T13:47:33;5.97;;;2.22;;
30420;SDS011;17218;54.070;10.012;2022-07-29T13:50:00;2.95;;;1.40;;
30420;SDS011;17218;54.070;10.012;2022-07-29T13:52:28;2.47;;;1.48;;
30420;SDS011;17218;54.070;10.012;2022-07-29T13:54:55;5.57;;;1.67;;
30420;SDS011;17218;54.070;10.012;2022-07-29T13:57:23;2.65;;;1.60;;
30420;SDS011;17218;54.070;10.012;2022-07-29T13:59:49;3.65;;;1.52;;
30420;SDS011;17218;54.070;10.012;2022-07-29T14:02:17;5.15;;;1.70;;
30420;SDS011;17218;54.070;10.012;2022-07-29T14:04:43;4.55;;;1.98;;
30420;SDS011;17218;54.070;10.012;2022-07-29T14:07:10;4.75;;;1.48;;
30420;SDS011;17218;54.070;10.012;2022-07-29T14:09:37;3.63;;;1.70;;
30420;SDS011;17218;54.070;10.012;2022-07-29T14:12:03;1.98;;;1.30;;
30420;SDS011;17218;54.070;10.012;2022-07-29T14:14:31;3.67;;;1.52;;
30420;SDS011;17218;54.070;10.012;2022-07-29T14:16:58;4.90;;;1.60;;
30420;SDS011;17218;54.070;10.012;2022-07-29T14:19:25;6.28;;;1.88;;
30420;SDS011;17218;54.070;10.012;2022-07-29T14:21:52;3.53;;;1.40;;
30420;SDS011;17218;54.070;10.012;2022-07-29T14:24:18;5.03;;;1.67;;
30420;SDS011;17218;54.070;10.012;2022-07-29T14:26:45;4.05;;;1.80;;
30420;SDS011;17218;54.070;10.012;2022-07-29T14:29:11;3.65;;;1.92;;
30420;SDS011;17218;54.070;10.012;2022-07-29T14:31:39;5.30;;;1.70;;
30420;SDS011;17218;54.070;10.012;2022-07-29T14:34:07;3.10;;;1.45;;
30420;SDS011;17218;54.070;10.012;2022-07-29T14:36:34;5.03;;;1.90;;
30420;SDS011;17218;54.070;10.012;2022-07-29T14:39:01;5.38;;;2.05;;
30420;SDS011;17218;54.070;10.012;2022-07-29T14:41:27;3.63;;;2.08;;
30420;SDS011;17218;54.070;10.012;2022-07-29T14:43:54;5.93;;;2.03;;
30420;SDS011;17218;54.070;10.012;2022-07-29T14:46:21;4.47;;;1.70;;
30420;SDS011;17218;54.070;10.012;2022-07-29T14:48:49;2.90;;;1.75;;
30420;SDS011;17218;54.070;10.012;2022-07-29T14:51:16;4.13;;;1.67;;
30420;SDS011;17218;54.070;10.012;2022-07-29T14:53:42;5.95;;;1.70;;
30420;SDS011;17218;54.070;10.012;2022-07-29T14:56:11;4.78;;;1.65;;
30420;SDS011;17218;54.070;10.012;2022-07-29T14:58:38;4.97;;;1.80;;
30420;SDS011;17218;54.070;10.012;2022-07-29T15:01:05;6.53;;;1.77;;